CDT,Max TemperatureF,Mean TemperatureF,Min TemperatureF,Max Dew PointF,MeanDew PointF,Min DewpointF,Max Humidity, Mean Humidity, Min Humidity, Max Sea Level PressureIn, Mean Sea Level PressureIn, Min Sea Level PressureIn, Max VisibilityMiles, Mean VisibilityMiles, Min VisibilityMiles, Max Wind SpeedMPH, Mean Wind SpeedMPH, Max Gust SpeedMPH,PrecipitationIn, CloudCover, Events, WindDirDegrees
2012-8-1,91,80,69,78,70,63,93,78,58,29.95,29.88,29.80,10,10,7,21,5,31,0.01,1,Rain-Thunderstorm,207
2012-8-2,84,75,66,71,67,64,99,77,52,29.90,29.88,29.83,10,10,10,10,5,,0.00,1,,332
2012-8-3,89,75,61,74,68,62,100,83,57,29.90,29.85,29.74,10,9,4,34,4,45,0.67,1,Rain-Thunderstorm,124
2012-8-4,78,71,64,67,63,58,100,81,52,30.00,29.88,29.78,10,10,5,16,7,23,0.00,4,Rain-Thunderstorm,267
2012-8-5,75,64,54,62,57,54,99,76,52,30.22,30.14,30.01,10,10,10,15,8,24,0.00,0,,276
2012-8-6,85,70,54,73,63,53,99,79,57,30.13,30.04,29.95,10,10,10,10,3,,0.00,0,,167
2012-8-7,83,74,64,69,65,61,100,73,48,30.03,30.00,29.95,10,9,0,9,2,,0.00,0,Fog,16
2012-8-8,74,69,64,67,64,61,92,83,72,30.01,29.98,29.95,10,10,10,14,4,17,0.00,4,Rain-Thunderstorm,74
2012-8-9,,,,,,,,,,,,,,,,,,,0.00,,,-1
2012-8-10,74,66,56,60,56,54,92,65,50,30.19,30.14,30.10,10,10,10,13,8,17,0.00,1,,43
2012-8-11,74,60,46,61,54,46,100,77,50,30.12,30.08,30.01,10,10,7,8,1,,0.00,0,,132
2012-8-12,62,60,57,61,59,56,99,93,82,30.05,30.02,30.00,10,9,5,6,1,,0.25,7,Rain,7
2012-8-13,79,67,55,67,61,55,100,83,54,30.06,30.02,29.98,10,9,1,12,5,,0.00,2,Rain,296
2012-8-14,74,64,54,63,59,54,100,80,54,30.01,29.96,29.86,10,10,0,7,2,,0.00,4,Fog-Rain,88
2012-8-15,81,72,62,72,66,59,95,83,67,29.86,29.77,29.69,10,10,10,16,7,22,0.01,5,Rain-Thunderstorm,154
2012-8-16,69,60,51,64,55,50,96,77,55,30.06,29.96,29.83,10,10,10,20,12,26,0.03,4,Rain,296
2012-8-17,74,60,46,55,50,46,99,77,43,30.13,30.08,30.04,10,10,10,8,4,,0.00,0,,291
2012-8-18,77,63,49,58,54,49,100,69,43,30.04,30.01,29.97,10,10,10,9,1,,0.00,1,,258
2012-8-19,75,64,51,59,55,50,99,77,47,30.05,30.01,29.98,10,10,10,9,4,16,0.00,2,Rain,12
2012-8-20,77,63,49,58,51,47,99,68,36,30.05,30.03,30.00,10,10,10,9,1,,0.00,1,,328
2012-8-21,79,62,44,58,53,44,99,72,42,30.08,30.05,29.98,10,10,1,8,2,,0.00,0,,179
2012-8-22,75,64,54,66,59,51,93,82,59,29.99,29.93,29.86,10,10,2,13,5,,0.21,2,Rain-Thunderstorm,121
2012-8-23,84,76,69,73,67,62,94,76,62,29.88,29.82,29.74,10,10,7,14,6,32,0.14,4,Rain-Thunderstorm,156
2012-8-24,89,74,59,76,68,59,100,82,61,29.87,29.82,29.79,10,9,0,12,4,18,0.00,0,Fog,173
2012-8-25,74,70,66,71,68,66,99,90,83,29.95,29.92,29.87,10,10,4,12,5,17,0.00,6,Rain,170
2012-8-26,81,71,61,70,66,61,100,82,50,30.06,29.99,29.94,10,8,2,9,2,,0.00,4,,262
2012-8-27,81,68,56,68,61,56,100,77,46,30.16,30.11,30.06,10,10,10,6,1,,0.00,2,,315
2012-8-28,82,73,64,72,67,61,94,83,66,30.14,30.04,29.96,10,10,10,14,5,,0.04,2,Rain-Thunderstorm,103
2012-8-29,89,76,64,72,68,64,100,79,53,29.96,29.87,29.76,10,10,10,10,6,,0.00,0,,114
2012-8-30,86,78,69,71,65,61,88,71,50,29.96,29.79,29.70,10,10,10,12,6,21,0.00,0,,207
2012-8-31,80,67,54,61,56,51,96,65,37,30.13,30.08,29.97,10,10,10,16,5,,0.00,0,,39